Time;durP1;ratioP1;P1;durP2;ratioP2;P2;SDS_P1;SDS_P2;PMS_P1;PMS_P2;Temp;Humidity;BMP_temperature;BMP_pressure;BME280_temperature;BME280_humidity;BME280_pressure;Samples;Min_cycle;Max_cycle;Signal;HPM_P1;HPM_P2
2022/09/01 00:00:13;;;;;;;3.87;2.40;;;14.90;99.90;;;;;;5090507;28;20208;-52
2022/09/01 00:02:44;;;;;;;3.00;2.00;;;14.90;99.90;;;;;;5101318;28;20211;-52
2022/09/01 00:05:12;;;;;;;2.90;2.17;;;15.00;99.90;;;;;;5111148;28;20228;-51
2022/09/01 00:07:40;;;;;;;2.13;1.80;;;15.00;99.90;;;;;;5101479;28;20252;-52
2022/09/01 00:10:09;;;;;;;2.13;1.93;;;15.10;99.90;;;;;;5110752;28;20272;-51
2022/09/01 00:12:38;;;;;;;4.30;1.75;;;15.10;99.90;;;;;;5110928;28;20729;-50
2022/09/01 00:15:09;;;;;;;4.47;1.92;;;15.10;99.90;;;;;;5110643;28;20235;-51
2022/09/01 00:17:38;;;;;;;4.77;2.20;;;15.00;99.90;;;;;;5111000;28;20219;-51
2022/09/01 00:20:08;;;;;;;2.00;1.80;;;15.00;99.90;;;;;;5110363;28;20203;-51
2022/09/01 00:22:36;;;;;;;1.90;1.70;;;15.00;99.90;;;;;;5110762;28;20203;-52
2022/09/01 00:25:06;;;;;;;3.07;1.77;;;14.90;99.90;;;;;;5097174;28;20665;-52
2022/09/01 00:27:35;;;;;;;2.53;1.97;;;15.00;99.90;;;;;;5109981;28;20207;-51
2022/09/01 00:30:05;;;;;;;1.93;1.70;;;15.00;99.90;;;;;;5106007;28;20211;-51
2022/09/01 00:32:33;;;;;;;2.77;2.10;;;15.00;99.90;;;;;;5102421;28;20559;-52
2022/09/01 00:35:02;;;;;;;3.13;1.67;;;15.00;99.90;;;;;;5103736;28;20223;-52
2022/09/01 00:37:30;;;;;;;2.70;1.90;;;15.00;99.90;;;;;;5082485;28;20324;-52
2022/09/01 00:39:58;;;;;;;3.80;1.90;;;15.00;99.90;;;;;;5110444;28;20211;-52
2022/09/01 00:42:26;;;;;;;2.50;2.03;;;15.00;99.90;;;;;;5110535;28;20834;-51
2022/09/01 00:44:54;;;;;;;3.40;1.77;;;15.00;99.90;;;;;;5110493;28;20228;-51
2022/09/01 00:47:22;;;;;;;3.07;2.10;;;14.90;99.90;;;;;;5110798;28;20229;-52
2022/09/01 00:49:51;;;;;;;4.13;2.20;;;14.90;99.90;;;;;;5110475;28;20199;-51
2022/09/01 00:52:26;;;;;;;2.00;1.60;;;14.90;99.90;;;;;;5110033;28;20264;-51
2022/09/01 00:54:57;;;;;;;5.70;1.80;;;14.90;99.90;;;;;;5110341;28;20222;-51
2022/09/01 00:57:26;;;;;;;3.80;1.87;;;14.90;99.90;;;;;;5110013;28;20264;-53
2022/09/01 00:59:59;;;;;;;2.03;1.57;;;14.90;99.90;;;;;;5110692;28;20253;-51
2022/09/01 01:02:27;;;;;;;3.23;1.80;;;14.90;99.90;;;;;;5109178;28;20204;-51
2022/09/01 01:04:59;;;;;;;3.60;1.90;;;14.90;99.90;;;;;;5110003;28;20224;-52
2022/09/01 01:07:29;;;;;;;1.70;1.60;;;14.80;99.90;;;;;;5096071;28;20200;-52
2022/09/01 01:09:57;;;;;;;4.00;1.70;;;14.80;99.90;;;;;;5109813;28;20207;-52
2022/09/01 01:12:29;;;;;;;1.87;1.50;;;14.80;99.90;;;;;;5110481;28;20204;-51
2022/09/01 01:14:57;;;;;;;3.23;2.00;;;14.70;99.90;;;;;;5109689;28;20300;-51
2022/09/01 01:17:25;;;;;;;2.33;1.60;;;14.70;99.90;;;;;;5110259;28;20216;-49
2022/09/01 01:23:05;;;;;;;2.47;1.67;;;14.60;99.90;;;;;;5110150;28;20249;-52
2022/09/01 01:25:39;;;;;;;2.60;1.60;;;14.60;99.90;;;;;;5109094;28;20628;-51
2022/09/01 01:28:12;;;;;;;1.67;1.43;;;14.60;99.90;;;;;;5106595;28;20189;-52
2022/09/01 01:30:42;;;;;;;3.40;1.90;;;14.60;99.90;;;;;;5109878;28;20208;-52
2022/09/01 01:33:10;;;;;;;3.30;1.80;;;14.60;99.90;;;;;;5098230;28;20235;-51
2022/09/01 01:35:40;;;;;;;3.87;1.97;;;14.50;99.90;;;;;;5108982;28;20264;-51
2022/09/01 01:38:10;;;;;;;1.60;1.50;;;14.50;99.90;;;;;;5109997;28;20237;-51
2022/09/01 01:40:40;;;;;;;4.20;1.80;;;14.40;99.90;;;;;;5109536;28;20204;-52
2022/09/01 01:43:10;;;;;;;3.23;1.90;;;14.40;99.90;;;;;;5111658;28;20294;-52
2022/09/01 01:45:39;;;;;;;2.07;1.87;;;14.30;99.90;;;;;;5113621;28;20231;-52
2022/09/01 01:48:07;;;;;;;3.53;1.63;;;14.30;99.90;;;;;;5100543;28;20231;-51
2022/09/01 01:50:36;;;;;;;4.60;2.03;;;14.30;99.90;;;;;;5112545;28;20207;-51
2022/09/01 01:53:06;;;;;;;3.50;1.57;;;14.20;99.90;;;;;;5113477;28;20845;-51
2022/09/01 01:55:40;;;;;;;2.50;1.90;;;14.20;99.90;;;;;;5113716;28;20245;-51
2022/09/01 01:58:10;;;;;;;2.73;1.77;;;14.10;99.90;;;;;;5114009;28;20231;-50
2022/09/01 02:00:41;;;;;;;2.53;1.60;;;14.00;99.90;;;;;;5112856;28;20805;-52
2022/09/01 02:03:11;;;;;;;2.87;1.73;;;14.00;99.90;;;;;;5103418;28;20215;-52
2022/09/01 02:05:40;;;;;;;2.73;1.70;;;14.00;99.90;;;;;;5113185;28;20227;-52
2022/09/01 02:08:10;;;;;;;2.80;2.00;;;13.90;99.90;;;;;;5102626;28;20200;-50
2022/09/01 02:10:43;;;;;;;3.87;1.80;;;13.90;99.90;;;;;;5112840;28;20260;-51
2022/09/01 02:13:15;;;;;;;2.40;1.60;;;13.90;99.90;;;;;;5113334;28;20268;-52
2022/09/01 02:15:46;;;;;;;2.10;1.90;;;13.90;99.90;;;;;;5112945;28;20223;-52
2022/09/01 02:18:17;;;;;;;3.40;1.90;;;13.80;99.90;;;;;;5112771;28;20207;-52
2022/09/01 02:20:48;;;;;;;2.07;1.57;;;13.80;99.90;;;;;;5112928;28;20243;-51
2022/09/01 02:23:22;;;;;;;3.27;1.73;;;13.80;99.90;;;;;;5113305;28;20199;-51
2022/09/01 02:25:54;;;;;;;2.20;1.70;;;13.80;99.90;;;;;;5112827;28;20231;-52
2022/09/01 02:28:44;;;;;;;2.60;1.80;;;13.70;99.90;;;;;;5108963;28;20282;-51
2022/09/01 02:31:12;;;;;;;2.73;1.67;;;13.70;99.90;;;;;;5112864;28;20211;-51
2022/09/01 02:33:44;;;;;;;2.13;1.70;;;13.70;99.90;;;;;;5100890;28;20214;-52
2022/09/01 02:36:16;;;;;;;4.80;1.50;;;13.70;99.90;;;;;;5112414;28;20224;-51
2022/09/01 02:38:44;;;;;;;2.70;1.83;;;13.60;99.90;;;;;;5107940;28;20704;-51
2022/09/01 02:41:23;;;;;;;2.93;1.70;;;13.60;99.90;;;;;;5104869;28;20315;-52
2022/09/01 02:43:52;;;;;;;3.53;1.80;;;13.60;99.90;;;;;;5112485;28;20203;-51
2022/09/01 02:46:22;;;;;;;2.80;1.60;;;13.60;99.90;;;;;;5112408;28;20663;-51
2022/09/01 02:48:52;;;;;;;2.97;1.80;;;13.60;99.90;;;;;;5112043;28;20587;-51
2022/09/01 02:51:24;;;;;;;2.47;1.60;;;13.60;99.90;;;;;;5112863;28;20281;-52
2022/09/01 02:53:53;;;;;;;2.13;1.50;;;13.60;99.90;;;;;;5111976;28;20200;-51
2022/09/01 02:56:26;;;;;;;3.97;2.03;;;13.60;99.90;;;;;;5112079;28;20234;-51
2022/09/01 02:58:55;;;;;;;1.93;1.70;;;13.60;99.90;;;;;;5110367;28;20227;-52
2022/09/01 03:01:25;;;;;;;2.13;1.60;;;13.60;99.90;;;;;;5112372;28;20756;-51
2022/09/01 03:03:55;;;;;;;2.03;1.50;;;13.50;99.90;;;;;;5111072;28;20688;-51
2022/09/01 03:06:24;;;;;;;1.70;1.50;;;13.50;99.90;;;;;;5106961;28;20226;-52
2022/09/01 03:08:54;;;;;;;2.83;1.80;;;13.40;99.90;;;;;;5107470;28;20615;-51
2022/09/01 03:11:24;;;;;;;2.57;1.67;;;13.40;99.90;;;;;;5111356;28;20272;-52
2022/09/01 03:13:53;;;;;;;2.93;2.07;;;13.40;99.90;;;;;;5112216;28;20211;-51
2022/09/01 03:16:22;;;;;;;2.17;1.90;;;13.40;99.90;;;;;;5111816;28;20227;-51
2022/09/01 03:18:51;;;;;;;1.70;1.60;;;13.40;99.90;;;;;;5112115;28;20245;-51
2022/09/01 03:21:20;;;;;;;2.63;1.70;;;13.40;99.90;;;;;;5111708;28;20682;-51
2022/09/01 03:23:49;;;;;;;2.67;1.90;;;13.40;99.90;;;;;;5111931;28;20260;-51
2022/09/01 03:26:19;;;;;;;2.60;1.97;;;13.30;99.90;;;;;;5111739;28;20271;-51
2022/09/01 03:28:50;;;;;;;3.13;1.97;;;13.40;99.90;;;;;;5107989;28;20908;-52
2022/09/01 03:31:19;;;;;;;4.50;1.90;;;13.40;99.90;;;;;;5111774;28;20675;-52
2022/09/01 03:33:48;;;;;;;4.37;1.50;;;13.40;99.90;;;;;;5099404;28;20630;-51
2022/09/01 03:36:18;;;;;;;3.80;1.80;;;13.40;99.90;;;;;;5111801;28;20948;-51
2022/09/01 03:38:48;;;;;;;2.83;1.60;;;13.50;99.90;;;;;;5106098;28;20333;-51
2022/09/01 03:41:18;;;;;;;3.27;1.90;;;13.50;99.90;;;;;;5103136;28;20668;-52
2022/09/01 03:43:46;;;;;;;3.30;1.60;;;13.50;99.90;;;;;;5111089;28;20229;-52
2022/09/01 03:46:20;;;;;;;3.00;1.83;;;13.50;99.90;;;;;;5111726;28;20235;-51
2022/09/01 03:48:50;;;;;;;2.20;1.67;;;13.50;99.90;;;;;;5110624;28;20199;-51
2022/09/01 03:51:19;;;;;;;3.73;1.73;;;13.50;99.90;;;;;;5111370;28;20203;-51
2022/09/01 03:53:48;;;;;;;2.77;1.80;;;13.40;99.90;;;;;;5111135;28;20208;-51
2022/09/01 03:56:16;;;;;;;2.07;1.40;;;13.40;99.90;;;;;;5109868;28;20280;-51
2022/09/01 03:58:45;;;;;;;2.07;1.77;;;13.30;99.90;;;;;;5110898;28;20219;-52
2022/09/01 04:01:16;;;;;;;2.80;2.00;;;13.30;99.90;;;;;;5110817;28;20751;-51
2022/09/01 04:03:47;;;;;;;2.73;1.70;;;13.30;99.90;;;;;;5110475;28;20676;-52
2022/09/01 04:06:18;;;;;;;2.20;1.87;;;13.20;99.90;;;;;;5105620;28;20315;-51
2022/09/01 04:08:46;;;;;;;2.90;1.63;;;13.20;99.90;;;;;;5105139;28;20211;-51
2022/09/01 04:11:17;;;;;;;4.33;2.10;;;13.30;99.90;;;;;;5110652;28;20207;-52
2022/09/01 04:13:47;;;;;;;2.43;1.80;;;13.30;99.90;;;;;;5110634;28;20250;-52
2022/09/01 04:19:18;;;;;;;3.37;1.63;;;13.40;99.90;;;;;;5110911;28;20227;-51
2022/09/01 04:21:49;;;;;;;2.70;1.80;;;13.40;99.90;;;;;;5110878;28;20200;-52
2022/09/01 04:24:18;;;;;;;2.67;1.60;;;13.40;99.90;;;;;;5109600;28;20664;-52
2022/09/01 04:26:48;;;;;;;3.90;1.70;;;13.50;99.90;;;;;;5110280;28;20233;-52
2022/09/01 04:29:18;;;;;;;2.40;1.80;;;13.50;99.90;;;;;;5106613;28;20208;-52
2022/09/01 04:31:52;;;;;;;2.80;1.90;;;13.50;99.90;;;;;;5108575;28;20199;-52
2022/09/01 04:34:21;;;;;;;1.40;1.30;;;13.50;99.90;;;;;;5100854;28;20310;-52
2022/09/01 04:36:52;;;;;;;4.43;1.73;;;13.60;99.90;;;;;;5110515;28;20578;-52
2022/09/01 04:39:21;;;;;;;3.33;1.40;;;13.60;99.90;;;;;;5110078;28;20314;-52
2022/09/01 04:41:50;;;;;;;3.10;1.70;;;13.60;99.90;;;;;;5109958;28;20256;-52
2022/09/01 04:44:18;;;;;;;4.03;1.40;;;13.60;99.90;;;;;;5110372;28;20660;-51
2022/09/01 04:46:49;;;;;;;2.83;1.67;;;13.60;99.90;;;;;;5109803;28;20215;-51
2022/09/01 04:49:21;;;;;;;2.20;1.50;;;13.60;99.90;;;;;;5110024;28;20199;-52
2022/09/01 04:51:51;;;;;;;3.80;1.90;;;13.70;99.90;;;;;;5109817;28;20211;-53
2022/09/01 04:54:22;;;;;;;2.97;1.57;;;13.80;99.90;;;;;;5110232;28;20227;-52
2022/09/01 04:56:53;;;;;;;2.50;1.57;;;13.80;99.90;;;;;;5109595;28;20208;-51
2022/09/01 04:59:25;;;;;;;2.10;1.60;;;13.80;99.90;;;;;;5110406;28;20215;-52
2022/09/01 05:01:56;;;;;;;1.90;1.43;;;13.80;99.90;;;;;;5109764;28;20211;-52
2022/09/01 05:04:26;;;;;;;1.63;1.47;;;13.80;99.90;;;;;;5095921;28;20700;-52
2022/09/01 05:06:58;;;;;;;1.50;1.40;;;13.80;99.90;;;;;;5100220;28;20219;-52
2022/09/01 05:09:28;;;;;;;1.63;1.30;;;13.80;99.90;;;;;;5110056;28;20227;-51
2022/09/01 05:12:00;;;;;;;1.73;1.40;;;14.00;99.90;;;;;;5109829;28;20208;-52
2022/09/01 05:14:29;;;;;;;1.50;1.40;;;14.40;99.90;;;;;;5109488;28;20231;-52
2022/09/01 05:17:00;;;;;;;2.13;1.17;;;14.40;99.90;;;;;;5108853;28;20585;-52
2022/09/01 05:19:29;;;;;;;1.70;1.47;;;14.50;99.90;;;;;;5109926;28;20265;-52
2022/09/01 05:21:58;;;;;;;2.60;1.53;;;14.50;99.90;;;;;;5109845;28;20207;-52
2022/09/01 05:24:30;;;;;;;2.90;1.40;;;14.60;99.90;;;;;;5109641;28;20310;-51
2022/09/01 05:26:59;;;;;;;2.37;1.47;;;14.80;99.90;;;;;;5109922;28;20195;-51
2022/09/01 05:29:28;;;;;;;1.30;1.20;;;14.90;99.90;;;;;;5105773;28;20203;-52
2022/09/01 05:31:57;;;;;;;6.77;2.00;;;15.10;99.90;;;;;;5106966;28;20278;-52
2022/09/01 05:34:28;;;;;;;2.60;1.63;;;15.10;99.90;;;;;;5101299;28;20224;-52
2022/09/01 05:36:58;;;;;;;3.47;1.83;;;15.10;99.90;;;;;;5109633;28;20211;-52
2022/09/01 05:39:27;;;;;;;3.00;1.83;;;15.00;99.90;;;;;;5109432;28;20208;-52
2022/09/01 05:41:56;;;;;;;2.87;1.43;;;15.10;99.90;;;;;;5109385;28;20206;-52
2022/09/01 05:44:24;;;;;;;2.80;1.57;;;15.10;99.90;;;;;;5109834;28;20307;-52
2022/09/01 05:46:54;;;;;;;3.17;1.60;;;15.00;99.90;;;;;;5109455;28;20203;-51
2022/09/01 05:49:23;;;;;;;3.43;1.60;;;15.00;99.90;;;;;;5109564;28;20203;-52
2022/09/01 05:51:57;;;;;;;4.23;1.77;;;15.00;99.90;;;;;;5090266;28;20216;-52
2022/09/01 05:54:27;;;;;;;2.20;1.63;;;15.10;99.90;;;;;;5097315;28;20784;-52
2022/09/01 05:56:57;;;;;;;3.85;1.65;;;15.20;99.90;;;;;;5108387;28;20708;-52
2022/09/01 05:59:40;;;;;;;4.18;1.50;;;15.30;99.90;;;;;;5109316;28;20320;-53
2022/09/01 06:02:08;;;;;;;3.73;1.57;;;15.40;99.90;;;;;;5109485;28;20225;-52
2022/09/01 06:04:42;;;;;;;3.23;1.40;;;15.40;99.90;;;;;;5109407;28;20227;-52
2022/09/01 06:07:14;;;;;;;4.43;1.57;;;15.40;99.90;;;;;;5098934;28;20688;-52
2022/09/01 06:09:46;;;;;;;2.28;1.42;;;15.40;99.90;;;;;;5109487;28;20200;-52
2022/09/01 06:12:20;;;;;;;5.57;1.80;;;15.50;99.90;;;;;;5109460;28;20887;-52
2022/09/01 06:14:50;;;;;;;4.80;1.70;;;15.50;99.90;;;;;;5108865;28;20234;-52
2022/09/01 06:17:23;;;;;;;8.23;1.87;;;15.50;99.90;;;;;;5109520;28;20241;-52
2022/09/01 06:19:53;;;;;;;2.90;1.70;;;15.60;99.90;;;;;;5109036;28;20231;-52
2022/09/01 06:22:24;;;;;;;2.15;1.73;;;15.60;99.90;;;;;;5109578;28;20204;-51
2022/09/01 06:24:53;;;;;;;3.07;1.77;;;15.70;99.90;;;;;;5088965;28;20223;-53
2022/09/01 06:27:29;;;;;;;4.87;1.93;;;15.60;99.90;;;;;;5102486;28;20223;-52
2022/09/01 06:29:57;;;;;;;5.03;1.92;;;15.60;99.90;;;;;;5103993;28;20256;-52
2022/09/01 06:32:25;;;;;;;5.47;1.77;;;15.60;99.90;;;;;;5106191;28;20253;-52
2022/09/01 06:34:56;;;;;;;3.00;1.80;;;15.60;99.90;;;;;;5108547;28;20313;-51
2022/09/01 06:37:27;;;;;;;3.78;1.90;;;15.60;99.90;;;;;;5101100;28;20247;-53
2022/09/01 06:39:56;;;;;;;2.33;1.50;;;15.70;99.90;;;;;;5092203;28;20220;-52
2022/09/01 06:42:24;;;;;;;4.30;1.77;;;15.90;99.90;;;;;;5091806;28;20586;-52
2022/09/01 06:44:52;;;;;;;2.78;1.63;;;15.90;99.90;;;;;;5078925;28;20258;-52
2022/09/01 06:47:21;;;;;;;2.78;1.80;;;16.20;99.90;;;;;;5089490;28;20204;-52
2022/09/01 06:49:49;;;;;;;1.98;1.38;;;17.00;99.90;;;;;;5092152;28;20200;-52
2022/09/01 06:52:22;;;;;;;4.65;2.08;;;17.50;99.90;;;;;;5091620;28;20230;-52
2022/09/01 06:54:53;;;;;;;2.33;1.85;;;17.90;99.90;;;;;;5082947;28;20234;-52
2022/09/01 06:57:22;;;;;;;2.10;1.70;;;18.10;99.90;;;;;;5091660;28;20324;-53
2022/09/01 07:00:16;;;;;;;2.45;1.80;;;18.40;99.90;;;;;;5084930;28;20255;-52
2022/09/01 07:02:47;;;;;;;3.08;1.95;;;18.50;99.90;;;;;;5086971;28;20212;-52
2022/09/01 07:05:20;;;;;;;3.10;1.90;;;18.80;99.90;;;;;;5091688;28;20219;-53
2022/09/01 07:08:13;;;;;;;2.30;1.88;;;19.30;99.90;;;;;;5091715;28;20283;-52
2022/09/01 07:10:45;;;;;;;3.65;2.10;;;19.80;99.90;;;;;;5103681;28;20204;-52
2022/09/01 07:13:34;;;;;;;3.25;1.67;;;20.10;99.90;;;;;;5111938;28;20749;-53
2022/09/01 07:16:06;;;;;;;3.42;1.80;;;19.30;99.90;;;;;;5112006;28;20310;-53
2022/09/01 07:18:57;;;;;;;5.82;2.10;;;19.60;99.90;;;;;;5112140;28;20310;-53
2022/09/01 07:21:27;;;;;;;3.33;1.95;;;19.50;99.90;;;;;;5111766;28;20273;-53
2022/09/01 07:24:16;;;;;;;5.97;2.28;;;19.50;99.90;;;;;;5111866;28;20754;-53
2022/09/01 07:26:49;;;;;;;4.38;2.15;;;19.70;99.90;;;;;;5111140;28;20214;-52
2022/09/01 07:29:20;;;;;;;2.78;1.88;;;19.90;99.90;;;;;;5103819;28;20208;-51
2022/09/01 07:31:49;;;;;;;3.97;2.00;;;20.20;99.90;;;;;;5107739;28;20196;-53
2022/09/01 07:34:38;;;;;;;2.78;2.00;;;20.50;99.90;;;;;;5105011;28;20617;-53
2022/09/01 07:37:06;;;;;;;1.80;1.70;;;20.70;99.90;;;;;;5111813;28;20207;-53
2022/09/01 07:39:55;;;;;;;4.22;1.90;;;20.60;99.90;;;;;;5109554;28;20247;-53
2022/09/01 07:42:25;;;;;;;6.13;1.98;;;20.80;99.90;;;;;;5110740;28;20223;-53
2022/09/01 07:45:15;;;;;;;2.10;1.73;;;21.00;99.90;;;;;;5111084;28;20719;-53
2022/09/01 07:48:05;;;;;;;2.63;1.75;;;21.20;99.90;;;;;;5111857;28;20204;-53
2022/09/01 07:50:35;;;;;;;2.65;1.83;;;21.40;99.90;;;;;;5110718;28;20217;-53
2022/09/01 07:53:25;;;;;;;2.47;1.60;;;21.40;99.90;;;;;;5111416;28;20724;-54
2022/09/01 07:55:56;;;;;;;3.13;1.75;;;21.40;99.90;;;;;;5082984;28;20704;-53
2022/09/01 07:58:28;;;;;;;1.85;1.42;;;21.30;99.90;;;;;;5111356;28;20235;-52
2022/09/01 08:00:58;;;;;;;4.40;1.75;;;21.50;99.90;;;;;;5110933;28;20216;-53
2022/09/01 08:03:26;;;;;;;2.30;1.48;;;21.50;99.90;;;;;;5111492;28;20696;-53
2022/09/01 08:05:59;;;;;;;4.30;1.48;;;21.30;99.90;;;;;;5109346;28;20216;-53
2022/09/01 08:08:27;;;;;;;3.58;1.98;;;21.00;99.90;;;;;;5102380;28;20229;-52
2022/09/01 08:10:56;;;;;;;1.98;1.40;;;21.00;99.90;;;;;;5110498;28;20245;-53
2022/09/01 08:13:36;;;;;;;4.05;1.75;;;20.90;99.90;;;;;;5110721;28;20214;-53
2022/09/01 08:16:09;;;;;;;3.33;1.73;;;20.90;99.90;;;;;;5110935;28;20242;-52
2022/09/01 08:18:46;;;;;;;2.28;1.60;;;20.80;99.90;;;;;;5110836;28;20231;-53
2022/09/01 08:21:20;;;;;;;2.67;1.60;;;20.70;99.90;;;;;;5111139;28;20218;-53
2022/09/01 08:23:49;;;;;;;2.22;1.90;;;20.80;99.90;;;;;;5110371;28;20575;-53
2022/09/01 08:26:19;;;;;;;3.63;1.70;;;20.70;99.90;;;;;;5110615;28;20276;-52
2022/09/01 08:28:49;;;;;;;3.00;1.30;;;20.80;99.90;;;;;;5110149;28;20249;-53
2022/09/01 08:31:26;;;;;;;1.70;1.33;;;20.80;99.90;;;;;;5090718;28;20195;-52
2022/09/01 08:33:58;;;;;;;2.65;1.60;;;20.90;99.90;;;;;;5096974;28;20231;-53
2022/09/01 08:36:26;;;;;;;1.80;1.55;;;20.90;99.90;;;;;;5110495;28;20314;-52
2022/09/01 08:38:54;;;;;;;2.42;1.70;;;20.90;99.90;;;;;;5109937;28;20672;-52
2022/09/01 08:41:32;;;;;;;3.53;1.75;;;20.80;99.90;;;;;;5110376;28;20231;-53
2022/09/01 08:44:13;;;;;;;2.70;1.90;;;20.90;99.90;;;;;;5109243;28;20208;-53
2022/09/01 08:46:42;;;;;;;1.70;1.60;;;20.90;99.90;;;;;;5109899;28;20222;-53
2022/09/01 08:49:16;;;;;;;3.22;1.88;;;21.00;99.90;;;;;;5109904;28;20286;-52
2022/09/01 08:52:00;;;;;;;1.70;1.50;;;21.00;99.90;;;;;;5109215;28;20287;-51
2022/09/01 08:54:36;;;;;;;2.10;1.90;;;21.00;99.90;;;;;;5109343;28;20219;-52
2022/09/01 08:57:08;;;;;;;4.00;1.90;;;21.30;99.90;;;;;;5109376;28;20291;-52
2022/09/01 08:59:38;;;;;;;2.47;1.50;;;21.30;99.90;;;;;;5110059;28;20264;-53
2022/09/01 09:02:23;;;;;;;3.65;1.75;;;21.30;99.90;;;;;;5109449;28;20773;-52
2022/09/01 09:05:00;;;;;;;3.42;1.65;;;21.20;99.90;;;;;;5109522;28;20242;-52
2022/09/01 09:07:48;;;;;;;2.75;1.45;;;21.10;99.90;;;;;;5097993;28;20203;-52
2022/09/01 09:10:20;;;;;;;3.25;1.80;;;21.20;99.90;;;;;;5085507;28;20266;-52
2022/09/01 09:13:01;;;;;;;3.20;1.58;;;21.30;99.90;;;;;;5097830;28;20320;-52
2022/09/01 09:15:37;;;;;;;2.88;1.80;;;21.30;99.90;;;;;;5109210;28;20235;-52
2022/09/01 09:18:16;;;;;;;4.70;1.80;;;21.50;99.90;;;;;;5108615;28;20252;-52
2022/09/01 09:21:09;;;;;;;2.33;1.52;;;21.60;99.90;;;;;;5109244;28;20243;-52
2022/09/01 09:23:42;;;;;;;2.15;1.60;;;21.60;99.90;;;;;;5109065;28;20696;-51
2022/09/01 09:26:10;;;;;;;2.83;1.67;;;21.50;99.90;;;;;;5109533;28;20259;-52
2022/09/01 09:28:49;;;;;;;3.75;1.90;;;21.50;99.90;;;;;;5098720;28;20240;-52
2022/09/01 09:31:34;;;;;;;5.32;2.10;;;21.50;99.90;;;;;;5108652;28;20203;-53
2022/09/01 09:34:04;;;;;;;1.80;1.70;;;21.40;99.90;;;;;;5097961;28;20215;-52
2022/09/01 09:36:35;;;;;;;3.92;1.92;;;21.40;99.90;;;;;;5109310;28;20207;-52
2022/09/01 09:39:12;;;;;;;4.90;2.03;;;21.40;99.90;;;;;;5109640;28;20233;-52
2022/09/01 09:41:41;;;;;;;5.82;1.70;;;21.30;99.90;;;;;;5082357;28;20737;-52
2022/09/01 09:44:23;;;;;;;4.55;1.80;;;21.30;99.90;;;;;;5109729;28;20212;-52
2022/09/01 09:46:53;;;;;;;5.20;2.13;;;21.40;99.90;;;;;;5084958;28;20735;-52
2022/09/01 09:49:24;;;;;;;4.18;1.83;;;21.50;99.90;;;;;;5093561;28;20653;-52
2022/09/01 09:52:16;;;;;;;3.60;1.90;;;21.50;99.90;;;;;;5099401;28;20225;-52
2022/09/01 09:55:01;;;;;;;3.97;1.88;;;21.40;99.90;;;;;;5109212;28;20239;-53
2022/09/01 09:57:31;;;;;;;4.82;2.05;;;21.50;99.90;;;;;;5096446;28;20252;-52
2022/09/01 10:00:03;;;;;;;3.75;1.80;;;21.50;99.90;;;;;;5108705;28;20684;-51
2022/09/01 10:02:36;;;;;;;4.50;2.00;;;21.60;99.90;;;;;;5108871;28;20223;-52
2022/09/01 10:05:24;;;;;;;5.75;1.83;;;21.50;99.90;;;;;;5110485;28;20230;-53
2022/09/01 10:07:55;;;;;;;3.92;2.22;;;21.60;99.90;;;;;;5099881;28;20232;-52
2022/09/01 10:10:31;;;;;;;2.92;1.80;;;21.50;99.90;;;;;;5112274;28;20274;-53
2022/09/01 10:13:00;;;;;;;3.78;2.30;;;21.60;99.90;;;;;;5112906;28;20207;-52
2022/09/01 10:15:32;;;;;;;3.85;2.17;;;21.70;99.90;;;;;;5106593;28;20286;-52
2022/09/01 10:18:10;;;;;;;3.35;1.65;;;21.90;99.90;;;;;;5112967;28;20689;-52
2022/09/01 10:21:00;;;;;;;2.55;1.75;;;21.90;99.90;;;;;;5112042;28;20286;-52
2022/09/01 10:23:34;;;;;;;1.83;1.73;;;21.90;99.90;;;;;;5112085;28;20239;-51
2022/09/01 10:26:07;;;;;;;3.65;1.80;;;21.90;99.90;;;;;;5112914;28;20230;-52
2022/09/01 10:28:45;;;;;;;2.33;1.65;;;21.70;99.90;;;;;;5102898;28;20209;-53
2022/09/01 10:31:18;;;;;;;2.40;1.95;;;21.60;99.90;;;;;;5112340;28;20203;-53
2022/09/01 10:33:49;;;;;;;3.25;1.90;;;21.70;99.90;;;;;;5106319;28;20230;-53
2022/09/01 10:36:18;;;;;;;3.58;1.85;;;21.50;99.90;;;;;;5109976;28;20738;-52
2022/09/01 10:38:48;;;;;;;4.55;1.85;;;21.70;99.90;;;;;;5111893;28;20203;-53
2022/09/01 10:41:55;;;;;;;3.47;1.70;;;21.80;99.90;;;;;;5112711;28;20199;-52
2022/09/01 10:44:32;;;;;;;1.73;1.50;;;22.00;99.20;;;;;;5061736;28;20629;-52
2022/09/01 10:47:03;;;;;;;2.80;1.95;;;22.10;99.00;;;;;;5113094;28;20730;-52
2022/09/01 10:50:04;;;;;;;2.90;1.77;;;22.20;99.50;;;;;;5105081;28;20262;-52
2022/09/01 10:53:07;;;;;;;2.03;1.80;;;22.40;99.00;;;;;;5091670;28;20897;-52
2022/09/01 10:55:42;;;;;;;2.35;1.70;;;22.60;98.90;;;;;;5097763;28;20227;-52
2022/09/01 10:58:49;;;;;;;4.22;1.73;;;22.60;97.30;;;;;;5112333;28;20346;-52
2022/09/01 11:02:20;;;;;;;8.63;2.38;;;22.40;97.60;;;;;;5098803;28;20207;-52
2022/09/01 11:05:15;;;;;;;5.25;2.08;;;22.60;98.00;;;;;;5086990;28;20723;-52
2022/09/01 11:07:45;;;;;;;6.50;1.83;;;22.50;97.60;;;;;;5095979;28;20200;-52
2022/09/01 11:10:51;;;;;;;4.07;1.77;;;22.30;97.80;;;;;;5112194;28;20286;-52
2022/09/01 11:13:35;;;;;;;2.05;1.77;;;22.20;97.20;;;;;;5111937;28;20726;-52
2022/09/01 11:16:30;;;;;;;2.70;2.20;;;22.20;96.90;;;;;;5084392;28;20302;-52
2022/09/01 11:19:42;;;;;;;1.95;1.73;;;22.00;95.70;;;;;;5103127;28;20207;-52
2022/09/01 11:22:20;;;;;;;1.83;1.73;;;22.10;96.60;;;;;;5074428;28;20669;-52
2022/09/01 11:25:06;;;;;;;3.22;1.63;;;22.10;97.10;;;;;;5091385;28;20231;-52
2022/09/01 11:28:01;;;;;;;2.70;2.05;;;22.10;97.10;;;;;;5089047;28;20223;-53
2022/09/01 11:30:51;;;;;;;3.00;1.75;;;22.10;97.10;;;;;;5090027;28;20257;-53
2022/09/01 11:33:42;;;;;;;3.03;1.70;;;22.10;95.50;;;;;;5091550;28;20193;-53
2022/09/01 11:36:22;;;;;;;2.13;1.80;;;22.10;95.50;;;;;;5086131;28;20220;-53
2022/09/01 11:38:56;;;;;;;2.83;2.03;;;22.40;95.10;;;;;;5091230;28;20696;-52
2022/09/01 11:41:32;;;;;;;2.90;1.92;;;22.60;94.40;;;;;;5090353;28;20665;-52
2022/09/01 11:44:10;;;;;;;5.05;1.90;;;22.90;94.20;;;;;;5091081;28;20584;-53
2022/09/01 11:46:42;;;;;;;3.05;1.90;;;23.10;93.90;;;;;;5080813;28;20207;-53
2022/09/01 11:49:27;;;;;;;2.30;2.10;;;23.30;93.60;;;;;;5100357;28;20235;-53
2022/09/01 11:51:56;;;;;;;2.35;1.70;;;23.50;92.70;;;;;;5111136;28;20725;-52
2022/09/01 11:54:25;;;;;;;1.98;1.60;;;23.70;93.10;;;;;;5111301;28;20219;-53
2022/09/01 11:56:53;;;;;;;2.78;1.85;;;23.80;92.50;;;;;;5110788;28;20253;-53
2022/09/01 11:59:33;;;;;;;3.38;1.80;;;23.90;93.00;;;;;;5111582;28;20625;-53
2022/09/01 12:02:02;;;;;;;1.77;1.67;;;24.10;93.30;;;;;;5111139;28;20207;-53
2022/09/01 12:04:35;;;;;;;2.22;1.60;;;24.30;91.90;;;;;;5110671;28;20237;-53
2022/09/01 12:07:06;;;;;;;2.45;1.75;;;23.80;91.80;;;;;;5102543;28;20204;-53
2022/09/01 12:09:41;;;;;;;2.50;1.90;;;23.70;92.90;;;;;;5090757;28;20202;-53
2022/09/01 12:12:29;;;;;;;3.55;1.90;;;23.50;93.50;;;;;;5110644;28;20987;-53
2022/09/01 12:14:59;;;;;;;3.45;1.90;;;23.40;93.00;;;;;;5110537;28;20285;-53
2022/09/01 12:17:34;;;;;;;3.53;1.88;;;23.20;93.00;;;;;;5110321;28;20755;-53
2022/09/01 12:20:23;;;;;;;3.25;1.88;;;23.10;92.90;;;;;;5110367;28;20240;-53
2022/09/01 12:22:56;;;;;;;4.55;1.77;;;23.10;92.40;;;;;;5110084;28;20231;-53
2022/09/01 12:25:27;;;;;;;2.28;1.73;;;22.90;91.70;;;;;;5110026;28;20284;-53
2022/09/01 12:27:57;;;;;;;5.10;2.00;;;22.90;92.40;;;;;;5077823;28;20257;-52
2022/09/01 12:30:27;;;;;;;4.43;1.98;;;23.00;92.80;;;;;;5102897;28;20219;-53
2022/09/01 12:32:57;;;;;;;2.83;2.00;;;22.90;92.60;;;;;;5104514;28;20208;-53
2022/09/01 12:35:45;;;;;;;4.95;2.15;;;22.90;92.30;;;;;;5110048;28;20259;-52
2022/09/01 12:38:24;;;;;;;1.98;1.85;;;22.90;92.60;;;;;;5109942;28;20195;-53
2022/09/01 12:40:54;;;;;;;3.65;2.20;;;23.10;92.70;;;;;;5110140;28;20620;-53
2022/09/01 12:43:35;;;;;;;1.75;1.65;;;23.20;92.60;;;;;;5110037;28;20223;-53
2022/09/01 12:46:09;;;;;;;2.10;1.90;;;23.30;92.80;;;;;;5105417;28;20234;-53
2022/09/01 12:48:40;;;;;;;2.22;2.03;;;23.50;92.40;;;;;;5110051;28;20295;-53
2022/09/01 12:51:20;;;;;;;2.80;1.95;;;23.50;91.30;;;;;;5110594;28;20257;-53
2022/09/01 12:53:59;;;;;;;2.70;1.73;;;23.50;91.40;;;;;;5109807;28;20204;-53
2022/09/01 12:56:33;;;;;;;2.17;1.90;;;23.60;91.40;;;;;;5109881;28;20256;-53
2022/09/01 12:59:08;;;;;;;2.38;1.80;;;23.70;91.30;;;;;;5095933;28;20215;-53
2022/09/01 13:01:46;;;;;;;4.93;1.83;;;23.60;91.00;;;;;;5109906;28;20199;-53
2022/09/01 13:04:27;;;;;;;1.95;1.67;;;23.60;91.00;;;;;;5109379;28;20223;-53
2022/09/01 13:06:59;;;;;;;3.42;2.10;;;23.60;91.00;;;;;;5101192;28;20212;-53
2022/09/01 13:09:28;;;;;;;2.30;2.10;;;23.70;90.60;;;;;;5109545;28;20245;-53
2022/09/01 13:12:16;;;;;;;2.78;1.80;;;23.80;90.60;;;;;;5109491;28;20264;-53
2022/09/01 13:14:45;;;;;;;2.75;1.88;;;23.80;90.10;;;;;;5109377;28;20307;-53
2022/09/01 13:17:15;;;;;;;6.18;2.05;;;23.70;90.60;;;;;;5109803;28;20260;-53
2022/09/01 13:19:43;;;;;;;3.50;1.50;;;23.70;89.60;;;;;;5102436;28;20204;-52
2022/09/01 13:22:11;;;;;;;3.33;1.92;;;23.60;90.00;;;;;;5104345;28;20622;-53
2022/09/01 13:24:39;;;;;;;3.38;1.95;;;23.60;88.50;;;;;;5109340;28;20231;-53
2022/09/01 13:27:07;;;;;;;1.85;1.75;;;23.60;88.40;;;;;;5109840;28;20260;-53